Time;durP1;ratioP1;P1;durP2;ratioP2;P2;SDS_P1;SDS_P2;PMS_P1;PMS_P2;Temp;Humidity;BMP_temperature;BMP_pressure;BME280_temperature;BME280_humidity;BME280_pressure;Samples;Min_cycle;Max_cycle;Signal;HPM_P1;HPM_P2
2022/04/09 00:02:19;;;;;;;0.80;0.60;;;3.10;99.90;;;;;;4995494;28;20177;-68
2022/04/09 00:04:44;;;;;;;1.03;0.60;;;3.10;99.90;;;;;;4995725;28;20689;-68
2022/04/09 00:07:10;;;;;;;1.73;0.60;;;3.20;99.90;;;;;;4995797;28;20197;-69
2022/04/09 00:09:38;;;;;;;1.13;1.00;;;3.20;99.90;;;;;;4995717;28;20243;-69
2022/04/09 00:12:04;;;;;;;1.73;1.07;;;3.30;99.90;;;;;;5000862;28;20175;-69
2022/04/09 00:14:30;;;;;;;1.37;1.13;;;3.40;99.90;;;;;;5015588;28;20826;-68
2022/04/09 00:16:55;;;;;;;1.07;0.97;;;3.50;99.90;;;;;;5015552;28;20411;-67
2022/04/09 00:19:24;;;;;;;1.10;1.00;;;3.50;99.90;;;;;;5014939;28;20204;-67
2022/04/09 00:21:49;;;;;;;1.90;1.10;;;3.50;99.90;;;;;;5014971;28;20179;-67
2022/04/09 00:24:15;;;;;;;0.80;0.80;;;3.50;99.90;;;;;;5015159;28;20411;-67
2022/04/09 00:26:41;;;;;;;1.20;0.90;;;3.60;99.90;;;;;;5008508;28;20176;-67
2022/04/09 00:29:06;;;;;;;1.10;1.00;;;3.60;99.90;;;;;;5011282;28;20439;-67
2022/04/09 00:31:32;;;;;;;1.07;0.97;;;3.60;99.90;;;;;;5015021;28;20187;-69
2022/04/09 00:33:59;;;;;;;3.87;0.97;;;3.70;99.90;;;;;;5014529;28;20226;-69
2022/04/09 00:36:24;;;;;;;3.33;1.30;;;3.70;99.90;;;;;;5014930;28;20407;-68
2022/04/09 00:38:50;;;;;;;1.00;0.90;;;3.70;99.90;;;;;;5014826;28;20430;-68
2022/04/09 00:41:16;;;;;;;1.17;1.07;;;3.60;99.90;;;;;;5014449;28;20251;-67
2022/04/09 00:43:42;;;;;;;1.17;1.07;;;3.70;99.90;;;;;;5013526;28;20179;-68
2022/04/09 00:46:11;;;;;;;0.90;0.80;;;3.70;99.90;;;;;;5039360;23;20247;-68
2022/04/09 00:48:37;;;;;;;1.33;1.00;;;3.70;99.90;;;;;;4993945;28;20460;-69
2022/04/09 00:51:04;;;;;;;1.30;0.90;;;3.70;99.90;;;;;;4977262;28;20439;-68
2022/04/09 00:53:35;;;;;;;1.10;1.00;;;3.70;99.90;;;;;;4994931;28;20408;-70
2022/04/09 00:56:18;;;;;;;2.23;1.33;;;3.70;99.90;;;;;;4994647;28;20400;-70
2022/04/09 00:58:57;;;;;;;1.20;1.10;;;3.70;99.90;;;;;;4975233;28;20447;-69
2022/04/09 01:01:24;;;;;;;1.50;1.17;;;3.60;99.90;;;;;;4974912;28;20409;-69
2022/04/09 01:03:51;;;;;;;2.30;1.80;;;3.60;99.90;;;;;;4975435;28;20957;-69
2022/04/09 01:06:17;;;;;;;1.33;1.23;;;3.60;99.90;;;;;;4975226;28;20464;-69
2022/04/09 01:08:43;;;;;;;1.27;1.07;;;3.60;99.90;;;;;;4973681;28;20863;-69
2022/04/09 01:11:08;;;;;;;1.30;1.20;;;3.70;99.90;;;;;;4974691;28;20452;-70
2022/04/09 01:13:37;;;;;;;2.00;1.30;;;3.70;99.90;;;;;;4974734;28;20180;-70
2022/04/09 01:16:03;;;;;;;1.20;1.10;;;3.70;99.90;;;;;;4974837;28;20599;-69
2022/04/09 01:18:30;;;;;;;1.40;1.30;;;3.80;99.90;;;;;;4993351;28;20506;-70
2022/04/09 01:21:00;;;;;;;1.37;1.27;;;3.90;99.90;;;;;;5003337;28;20411;-70
2022/04/09 01:23:27;;;;;;;1.67;1.40;;;3.90;99.90;;;;;;5013796;28;20420;-69
2022/04/09 01:25:56;;;;;;;2.80;2.10;;;3.70;99.90;;;;;;5013647;28;20407;-70
2022/04/09 01:28:22;;;;;;;2.60;2.40;;;3.90;99.90;;;;;;5013322;28;20447;-69
2022/04/09 01:30:48;;;;;;;1.40;1.30;;;3.90;99.90;;;;;;5013659;28;20410;-69
2022/04/09 01:33:15;;;;;;;1.80;1.70;;;4.00;99.90;;;;;;5013409;28;20171;-70
2022/04/09 01:35:41;;;;;;;1.70;1.60;;;4.00;99.90;;;;;;5013614;28;20167;-70
2022/04/09 01:38:07;;;;;;;1.93;1.83;;;4.00;99.90;;;;;;5013516;28;20431;-69
2022/04/09 01:40:32;;;;;;;2.43;1.80;;;4.10;99.90;;;;;;5014028;28;20251;-70
2022/04/09 01:42:58;;;;;;;2.33;2.13;;;4.20;99.90;;;;;;4982182;28;20452;-68
2022/04/09 01:45:24;;;;;;;3.00;2.70;;;4.30;99.90;;;;;;4993887;28;20169;-70
2022/04/09 01:47:49;;;;;;;2.27;2.17;;;4.30;99.90;;;;;;4975868;28;20291;-70
2022/04/09 01:50:15;;;;;;;3.23;2.13;;;4.30;99.90;;;;;;4994143;28;20203;-70
2022/04/09 01:52:41;;;;;;;2.93;2.73;;;4.10;99.90;;;;;;4994100;28;20165;-70
2022/04/09 01:55:07;;;;;;;2.90;2.20;;;4.00;99.90;;;;;;4993871;28;20161;-70
2022/04/09 01:57:36;;;;;;;2.27;2.10;;;4.10;99.90;;;;;;4993535;28;20194;-70
2022/04/09 02:00:06;;;;;;;2.77;2.13;;;4.20;99.90;;;;;;4993782;28;20917;-70
2022/04/09 02:02:32;;;;;;;3.60;3.30;;;4.20;99.90;;;;;;4993281;28;20399;-69
2022/04/09 02:04:57;;;;;;;3.37;3.07;;;4.20;99.90;;;;;;4993690;28;20458;-69
2022/04/09 02:07:23;;;;;;;4.37;3.50;;;4.30;99.90;;;;;;4993522;28;20452;-70
2022/04/09 02:09:49;;;;;;;2.70;2.50;;;4.50;99.90;;;;;;4993726;28;20172;-70
2022/04/09 02:12:15;;;;;;;3.10;2.80;;;4.40;99.90;;;;;;4975945;28;20420;-69
2022/04/09 02:14:41;;;;;;;2.60;2.40;;;4.40;99.90;;;;;;4994145;28;20172;-70
2022/04/09 02:17:06;;;;;;;2.30;2.10;;;4.40;99.90;;;;;;4993368;28;20185;-70
2022/04/09 02:19:32;;;;;;;3.00;2.80;;;4.50;99.90;;;;;;4993502;28;20172;-70
2022/04/09 02:21:58;;;;;;;5.10;4.53;;;4.60;99.90;;;;;;5009711;28;20446;-70
2022/04/09 02:24:23;;;;;;;8.73;6.50;;;4.60;99.90;;;;;;5017161;28;20196;-70
2022/04/09 02:26:49;;;;;;;8.17;5.10;;;4.50;99.90;;;;;;5016700;28;20202;-70
2022/04/09 02:29:14;;;;;;;4.63;4.20;;;4.50;99.90;;;;;;5017310;28;20230;-69
2022/04/09 02:31:40;;;;;;;3.03;2.83;;;4.60;99.90;;;;;;5016985;28;20203;-69
2022/04/09 02:34:06;;;;;;;4.00;3.30;;;4.70;99.90;;;;;;5016911;28;20695;-70
2022/04/09 02:36:32;;;;;;;3.60;3.40;;;4.70;99.90;;;;;;5017177;28;20423;-70
2022/04/09 02:38:58;;;;;;;6.30;3.70;;;4.60;99.90;;;;;;5015842;28;20183;-69
2022/04/09 02:41:24;;;;;;;3.90;3.33;;;4.60;99.90;;;;;;4996835;28;20403;-70
2022/04/09 02:43:49;;;;;;;3.80;3.50;;;4.60;99.90;;;;;;4996882;28;20859;-70
2022/04/09 02:46:16;;;;;;;3.40;3.10;;;4.60;99.90;;;;;;4996931;28;20176;-70
2022/04/09 02:48:42;;;;;;;4.20;3.80;;;4.60;99.90;;;;;;4996894;28;20579;-70
2022/04/09 02:51:08;;;;;;;4.00;3.70;;;4.50;99.90;;;;;;4996964;28;20434;-69
2022/04/09 02:53:33;;;;;;;3.47;3.20;;;4.50;99.90;;;;;;4997266;28;20192;-70
2022/04/09 02:55:59;;;;;;;3.70;2.73;;;4.50;99.90;;;;;;4997545;28;20172;-70
2022/04/09 02:58:25;;;;;;;4.27;3.87;;;4.50;99.90;;;;;;4979403;28;20189;-70
2022/04/09 03:00:50;;;;;;;4.60;4.10;;;4.50;99.90;;;;;;4996975;28;20243;-70
2022/04/09 03:03:16;;;;;;;4.50;4.20;;;4.50;99.90;;;;;;4996722;28;20663;-70
2022/04/09 03:05:41;;;;;;;3.93;3.60;;;4.60;99.90;;;;;;4997128;28;20683;-70
2022/04/09 03:08:07;;;;;;;3.47;3.17;;;4.70;99.90;;;;;;4996467;28;20196;-73
2022/04/09 03:10:33;;;;;;;3.10;2.90;;;4.50;99.90;;;;;;4996981;28;20180;-69
2022/04/09 03:12:58;;;;;;;2.90;2.70;;;4.60;99.90;;;;;;4996644;28;20256;-70
2022/04/09 03:15:26;;;;;;;3.40;3.13;;;4.60;99.90;;;;;;4996747;28;20545;-70
2022/04/09 03:17:51;;;;;;;2.90;2.70;;;4.70;99.90;;;;;;4995988;28;20184;-69
2022/04/09 03:20:17;;;;;;;3.50;3.20;;;4.70;99.90;;;;;;4993196;28;20994;-70
2022/04/09 03:22:47;;;;;;;2.67;2.47;;;4.70;99.90;;;;;;4996850;28;20177;-70
2022/04/09 03:25:13;;;;;;;3.20;2.93;;;4.70;99.90;;;;;;4989767;28;20164;-70
2022/04/09 03:27:38;;;;;;;2.87;2.67;;;4.80;99.90;;;;;;5015704;28;20458;-70
2022/04/09 03:30:09;;;;;;;2.83;2.63;;;4.80;99.90;;;;;;5016252;28;20498;-70
2022/04/09 03:32:39;;;;;;;2.70;2.50;;;4.70;99.90;;;;;;5015524;28;20714;-70
2022/04/09 03:35:05;;;;;;;3.83;3.53;;;4.80;99.90;;;;;;5015077;28;20391;-69
2022/04/09 03:37:33;;;;;;;3.80;3.50;;;4.80;99.90;;;;;;5004303;28;20518;-69
2022/04/09 03:39:59;;;;;;;4.77;4.20;;;4.80;99.90;;;;;;4996059;28;20412;-70
2022/04/09 03:42:24;;;;;;;4.00;3.70;;;4.90;99.90;;;;;;4995054;28;20424;-69
2022/04/09 03:44:50;;;;;;;4.10;3.70;;;5.00;99.90;;;;;;4996048;28;20169;-70
2022/04/09 03:47:16;;;;;;;4.60;4.20;;;5.00;99.90;;;;;;4995394;28;20248;-70
2022/04/09 03:49:41;;;;;;;4.80;4.40;;;5.00;99.90;;;;;;4995953;28;20164;-70
2022/04/09 03:52:07;;;;;;;6.43;5.83;;;4.90;99.90;;;;;;4995947;28;20203;-69
2022/04/09 03:54:35;;;;;;;7.83;5.67;;;4.90;99.90;;;;;;4996114;28;20169;-69
2022/04/09 03:57:01;;;;;;;6.70;6.10;;;4.90;99.90;;;;;;4995509;28;20208;-69
2022/04/09 03:59:26;;;;;;;6.30;5.80;;;4.90;99.90;;;;;;4995763;28;20929;-70
2022/04/09 04:01:52;;;;;;;8.43;6.67;;;5.00;99.90;;;;;;4983076;28;20169;-69
2022/04/09 04:04:17;;;;;;;8.63;7.83;;;4.90;99.90;;;;;;4986820;28;20231;-69
2022/04/09 04:06:43;;;;;;;9.37;8.47;;;4.70;99.90;;;;;;4995531;28;20184;-70
2022/04/09 04:09:09;;;;;;;9.60;8.63;;;4.70;99.90;;;;;;4978124;28;20207;-69
2022/04/09 04:11:35;;;;;;;10.13;9.13;;;4.80;99.90;;;;;;4977913;28;20173;-70
2022/04/09 04:14:00;;;;;;;9.70;8.70;;;4.80;99.90;;;;;;4995816;28;20764;-70
2022/04/09 04:16:26;;;;;;;11.97;10.70;;;4.70;99.90;;;;;;4995291;28;20189;-70
2022/04/09 04:18:51;;;;;;;11.07;8.80;;;4.70;99.90;;;;;;4995259;28;20179;-69
2022/04/09 04:21:17;;;;;;;12.43;9.30;;;4.70;99.90;;;;;;4995406;28;20280;-69
2022/04/09 04:23:43;;;;;;;13.23;11.90;;;4.80;99.90;;;;;;4995616;28;20270;-69
2022/04/09 04:26:08;;;;;;;11.67;10.47;;;4.60;99.90;;;;;;4995599;28;20580;-69
2022/04/09 04:28:34;;;;;;;14.03;10.70;;;4.70;99.90;;;;;;4994977;28;20212;-69
2022/04/09 04:30:59;;;;;;;12.90;9.83;;;4.80;99.90;;;;;;4995225;28;20255;-70
2022/04/09 04:33:25;;;;;;;13.13;11.13;;;4.70;99.90;;;;;;4994998;28;20169;-70
2022/04/09 04:35:51;;;;;;;13.27;10.80;;;4.60;99.90;;;;;;4995091;28;20164;-70
2022/04/09 04:38:16;;;;;;;11.93;10.80;;;4.60;99.90;;;;;;4994910;28;20188;-70
2022/04/09 04:40:42;;;;;;;12.07;10.73;;;4.60;99.90;;;;;;4995207;28;20172;-70
2022/04/09 04:43:08;;;;;;;11.43;10.23;;;4.70;99.90;;;;;;4993941;28;20238;-70
2022/04/09 04:45:34;;;;;;;11.90;10.70;;;4.90;99.90;;;;;;4994533;28;20177;-70
2022/04/09 04:47:59;;;;;;;12.40;11.10;;;4.80;99.90;;;;;;4993957;28;20901;-69
2022/04/09 04:50:25;;;;;;;12.23;10.07;;;4.80;99.90;;;;;;4994564;28;20177;-70
2022/04/09 04:52:51;;;;;;;12.70;11.40;;;4.80;99.90;;;;;;4994771;28;20179;-70
2022/04/09 04:55:17;;;;;;;12.30;10.97;;;4.70;99.90;;;;;;4995244;28;20160;-70
2022/04/09 04:57:50;;;;;;;12.07;10.87;;;5.00;99.90;;;;;;4994386;28;20547;-70
2022/04/09 05:00:18;;;;;;;12.50;11.00;;;5.00;99.90;;;;;;4994532;28;20945;-70
2022/04/09 05:02:44;;;;;;;12.00;10.70;;;5.20;99.90;;;;;;4994274;28;20901;-70
2022/04/09 05:05:10;;;;;;;10.27;9.27;;;5.20;99.90;;;;;;4994490;28;20428;-70
2022/04/09 05:07:46;;;;;;;10.33;9.40;;;5.10;99.90;;;;;;4994331;28;20215;-70
2022/04/09 05:10:15;;;;;;;10.83;9.70;;;5.00;99.90;;;;;;4994738;28;20153;-70
2022/04/09 05:12:42;;;;;;;13.87;11.50;;;4.90;99.90;;;;;;4994161;28;20407;-70
2022/04/09 05:15:09;;;;;;;18.30;10.47;;;5.10;99.90;;;;;;4994310;28;20470;-70
2022/04/09 05:17:35;;;;;;;10.30;9.37;;;5.10;99.90;;;;;;4994167;28;20792;-69
2022/04/09 05:20:03;;;;;;;11.50;9.53;;;5.10;99.90;;;;;;4994259;28;20459;-70
2022/04/09 05:22:30;;;;;;;12.10;10.87;;;5.10;99.90;;;;;;4994210;28;20543;-70
2022/04/09 05:24:56;;;;;;;9.93;8.53;;;5.10;99.90;;;;;;4994416;28;20470;-70
2022/04/09 05:27:22;;;;;;;13.03;10.00;;;5.20;99.90;;;;;;4993786;28;20459;-70
2022/04/09 05:29:48;;;;;;;12.60;9.70;;;5.20;99.90;;;;;;4994122;28;20496;-69
2022/04/09 05:32:14;;;;;;;9.07;8.17;;;5.20;99.90;;;;;;4993832;28;20872;-69
2022/04/09 05:34:39;;;;;;;10.87;8.87;;;4.90;99.90;;;;;;4992688;28;20498;-69
2022/04/09 05:37:05;;;;;;;10.17;9.17;;;4.90;99.90;;;;;;4994178;28;20810;-70
2022/04/09 05:39:31;;;;;;;12.70;10.27;;;5.10;99.90;;;;;;4993893;28;20179;-70
2022/04/09 05:41:57;;;;;;;10.60;8.53;;;5.20;99.90;;;;;;4993111;28;20179;-70
2022/04/09 05:44:22;;;;;;;9.03;8.10;;;5.40;99.90;;;;;;4993818;28;20732;-70
2022/04/09 05:46:48;;;;;;;10.33;8.90;;;5.40;99.90;;;;;;4993542;28;20245;-70
2022/04/09 05:49:14;;;;;;;16.80;9.80;;;5.40;99.90;;;;;;4993693;28;20312;-70
2022/04/09 05:51:39;;;;;;;10.40;9.40;;;5.40;99.90;;;;;;4994031;28;20176;-69
2022/04/09 05:54:05;;;;;;;11.57;10.47;;;5.20;99.90;;;;;;4994040;28;20168;-69
2022/04/09 05:56:31;;;;;;;14.93;10.50;;;5.10;99.90;;;;;;4993632;28;20184;-69
2022/04/09 05:58:57;;;;;;;10.37;9.33;;;5.30;99.90;;;;;;4993446;28;20414;-69
2022/04/09 06:01:22;;;;;;;13.03;10.33;;;5.20;99.90;;;;;;4993686;28;20180;-70
2022/04/09 06:03:48;;;;;;;11.47;10.27;;;4.90;99.90;;;;;;4993451;28;20196;-69
2022/04/09 06:06:14;;;;;;;9.53;8.43;;;5.00;99.90;;;;;;4993545;28;20239;-70
2022/04/09 06:08:39;;;;;;;10.57;8.73;;;4.90;99.90;;;;;;4993798;28;20216;-69
2022/04/09 06:11:05;;;;;;;9.77;8.80;;;4.90;99.90;;;;;;4993593;28;20208;-69
2022/04/09 06:13:31;;;;;;;11.23;9.50;;;5.10;99.90;;;;;;4993318;28;20565;-69
2022/04/09 06:15:57;;;;;;;10.80;9.70;;;4.90;99.90;;;;;;4993554;28;20169;-69
2022/04/09 06:18:22;;;;;;;9.57;8.57;;;5.10;99.90;;;;;;4993315;28;20513;-69
2022/04/09 06:20:48;;;;;;;12.13;10.87;;;5.00;99.90;;;;;;4993598;28;20169;-69
2022/04/09 06:23:14;;;;;;;8.20;7.20;;;5.10;99.90;;;;;;4993505;28;20259;-69
2022/04/09 06:25:39;;;;;;;10.40;8.60;;;5.10;99.90;;;;;;4993793;28;20722;-70
2022/04/09 06:28:05;;;;;;;9.23;8.30;;;5.40;99.90;;;;;;4993431;28;20685;-70
2022/04/09 06:30:31;;;;;;;9.20;7.17;;;5.50;99.90;;;;;;4993485;28;20645;-69
2022/04/09 06:32:56;;;;;;;10.23;8.43;;;5.50;99.90;;;;;;4975913;28;20169;-69
2022/04/09 06:35:24;;;;;;;8.30;7.10;;;5.70;99.90;;;;;;4993289;28;20180;-69
2022/04/09 06:37:50;;;;;;;7.90;7.10;;;5.50;99.90;;;;;;4993228;28;20196;-68
2022/04/09 06:40:16;;;;;;;8.40;6.93;;;5.70;99.90;;;;;;4993672;28;20410;-69
2022/04/09 06:42:42;;;;;;;7.50;6.53;;;5.50;99.90;;;;;;4992276;28;20177;-69
2022/04/09 06:45:09;;;;;;;7.77;6.60;;;5.40;99.90;;;;;;4993175;28;20177;-69
2022/04/09 06:47:38;;;;;;;9.70;7.03;;;5.50;99.90;;;;;;5040187;23;20489;-69
2022/04/09 06:50:12;;;;;;;7.90;6.93;;;5.50;99.90;;;;;;5051986;28;20426;-69
2022/04/09 06:52:38;;;;;;;7.37;6.67;;;5.60;99.90;;;;;;5017307;28;20405;-68
2022/04/09 06:55:05;;;;;;;7.23;6.53;;;5.70;99.90;;;;;;5049954;28;20506;-68
2022/04/09 06:57:32;;;;;;;8.60;7.53;;;5.70;99.90;;;;;;5059741;28;20431;-68
2022/04/09 06:59:59;;;;;;;8.10;7.30;;;5.80;99.90;;;;;;5072286;28;20408;-68
2022/04/09 07:02:25;;;;;;;6.77;6.10;;;5.80;99.90;;;;;;5071916;28;20829;-67
2022/04/09 07:04:51;;;;;;;11.10;7.07;;;5.90;99.90;;;;;;5072128;28;20420;-67
2022/04/09 07:07:27;;;;;;;8.00;7.30;;;6.00;99.90;;;;;;5072037;28;20609;-68
2022/04/09 07:10:13;;;;;;;9.33;7.07;;;6.10;99.90;;;;;;5074094;28;20395;-67
2022/04/09 07:12:39;;;;;;;11.67;7.83;;;5.80;99.90;;;;;;5066863;28;20405;-67
2022/04/09 07:15:05;;;;;;;8.80;7.00;;;5.90;99.90;;;;;;5055688;28;20435;-67
2022/04/09 07:17:31;;;;;;;7.60;6.70;;;5.90;99.90;;;;;;5054973;28;20436;-69
2022/04/09 07:20:01;;;;;;;6.50;5.90;;;6.20;99.90;;;;;;5055438;28;20567;-67
2022/04/09 07:22:26;;;;;;;10.13;7.17;;;6.50;99.90;;;;;;5037436;28;20442;-68
2022/04/09 07:24:53;;;;;;;9.97;6.57;;;6.60;99.90;;;;;;5037493;28;20433;-68
2022/04/09 07:27:18;;;;;;;7.27;6.57;;;6.50;99.90;;;;;;5054715;28;20252;-68
2022/04/09 07:29:44;;;;;;;9.50;6.37;;;6.70;99.90;;;;;;5055014;28;20910;-67
2022/04/09 07:32:09;;;;;;;8.57;6.77;;;6.70;99.90;;;;;;5055127;28;20167;-68
2022/04/09 07:34:35;;;;;;;7.40;6.70;;;6.80;99.90;;;;;;5054578;28;20170;-68
2022/04/09 07:37:01;;;;;;;8.27;6.57;;;6.80;99.90;;;;;;5054978;28;20227;-67
2022/04/09 07:39:26;;;;;;;7.13;6.43;;;6.90;99.90;;;;;;5055106;28;20162;-68
2022/04/09 07:41:52;;;;;;;10.30;7.20;;;6.80;99.90;;;;;;5053819;28;21068;-69
2022/04/09 07:44:17;;;;;;;6.53;5.93;;;7.00;99.90;;;;;;5054685;28;20159;-69
2022/04/09 07:46:43;;;;;;;6.00;5.40;;;7.30;99.90;;;;;;5054509;28;20165;-69
2022/04/09 07:49:09;;;;;;;6.37;5.77;;;7.20;99.90;;;;;;5054371;28;20218;-68
2022/04/09 07:51:34;;;;;;;10.73;6.73;;;7.30;99.90;;;;;;5054792;28;20166;-67
2022/04/09 07:54:00;;;;;;;8.60;6.17;;;7.00;99.90;;;;;;5054761;28;20246;-68
2022/04/09 07:56:25;;;;;;;7.40;5.80;;;6.70;99.90;;;;;;5054804;28;20170;-69
2022/04/09 07:58:51;;;;;;;6.40;5.70;;;6.80;99.90;;;;;;5054428;28;20278;-68
2022/04/09 08:01:17;;;;;;;8.40;6.50;;;7.00;99.90;;;;;;5055169;28;20171;-67
2022/04/09 08:03:42;;;;;;;8.27;5.83;;;7.10;99.90;;;;;;5054279;28;20276;-68
2022/04/09 08:06:08;;;;;;;6.80;5.30;;;6.90;99.90;;;;;;5052703;28;20206;-68
2022/04/09 08:08:33;;;;;;;10.40;5.60;;;6.90;99.90;;;;;;5045157;28;20206;-68
2022/04/09 08:11:00;;;;;;;8.30;5.43;;;6.90;99.90;;;;;;5045084;28;20180;-68
2022/04/09 08:13:25;;;;;;;9.43;6.10;;;7.30;99.90;;;;;;5057797;28;20167;-67
2022/04/09 08:15:51;;;;;;;7.63;5.50;;;7.30;99.90;;;;;;5047228;28;20767;-68
2022/04/09 08:18:17;;;;;;;5.97;5.17;;;6.90;99.90;;;;;;5057222;28;20205;-68
2022/04/09 08:20:43;;;;;;;8.33;5.27;;;6.90;99.90;;;;;;5048077;28;20241;-68
2022/04/09 08:23:09;;;;;;;6.37;5.53;;;6.80;99.90;;;;;;5056891;28;20505;-66
2022/04/09 08:25:34;;;;;;;5.87;5.33;;;6.90;99.90;;;;;;5066204;28;21050;-67
2022/04/09 08:28:00;;;;;;;6.73;5.03;;;7.20;99.90;;;;;;5074174;28;20202;-67
2022/04/09 08:30:26;;;;;;;8.60;5.57;;;6.90;99.90;;;;;;5074422;28;20207;-68
2022/04/09 08:32:52;;;;;;;11.10;5.73;;;6.80;99.90;;;;;;5073950;28;20166;-69
2022/04/09 08:35:19;;;;;;;7.03;5.37;;;6.70;99.90;;;;;;5073949;28;20273;-69
2022/04/09 08:37:55;;;;;;;8.20;5.30;;;6.80;99.90;;;;;;5073754;28;20443;-69
2022/04/09 08:40:21;;;;;;;6.70;5.37;;;6.90;99.90;;;;;;5073875;28;20859;-69
2022/04/09 08:42:48;;;;;;;6.73;5.13;;;7.00;99.90;;;;;;5063164;28;20516;-68
2022/04/09 08:45:15;;;;;;;6.80;4.97;;;7.10;99.90;;;;;;5053450;28;20524;-69
2022/04/09 08:47:42;;;;;;;8.50;4.70;;;7.20;99.90;;;;;;5053324;28;21007;-69
2022/04/09 08:50:10;;;;;;;7.47;4.77;;;7.00;99.90;;;;;;5066636;28;20408;-69
2022/04/09 08:52:39;;;;;;;8.50;4.73;;;6.90;99.90;;;;;;5073501;28;20397;-68
2022/04/09 08:55:06;;;;;;;7.80;4.70;;;6.70;99.90;;;;;;5055254;28;20457;-68
2022/04/09 08:57:34;;;;;;;9.43;5.27;;;6.60;99.90;;;;;;5072502;28;20774;-68
2022/04/09 09:00:06;;;;;;;5.50;4.60;;;6.80;99.90;;;;;;5073214;28;20449;-67
2022/04/09 09:02:35;;;;;;;7.87;4.70;;;6.90;99.90;;;;;;5072955;28;20903;-68
2022/04/09 09:05:00;;;;;;;9.87;6.10;;;6.90;99.90;;;;;;5072803;28;20412;-67
2022/04/09 09:07:26;;;;;;;9.27;5.67;;;7.00;99.90;;;;;;5072943;28;20463;-69
2022/04/09 09:09:52;;;;;;;7.67;5.20;;;7.20;99.90;;;;;;5054830;28;20301;-68
2022/04/09 09:12:29;;;;;;;6.60;4.90;;;7.20;99.90;;;;;;5068317;28;20240;-68
2022/04/09 09:14:55;;;;;;;6.00;4.40;;;7.00;99.90;;;;;;5034460;28;20448;-68
2022/04/09 09:17:28;;;;;;;11.67;4.50;;;6.80;99.90;;;;;;5052767;28;20533;-68
2022/04/09 09:19:54;;;;;;;8.60;5.43;;;6.90;99.90;;;;;;5052849;28;20409;-69
2022/04/09 09:22:20;;;;;;;7.57;4.97;;;7.00;99.90;;;;;;5052567;28;20413;-68
2022/04/09 09:25:02;;;;;;;7.27;4.67;;;7.20;99.90;;;;;;5052265;28;20179;-68
2022/04/09 09:27:28;;;;;;;7.83;5.90;;;7.60;99.90;;;;;;5034204;28;20304;-69
2022/04/09 09:29:55;;;;;;;5.60;4.80;;;7.80;99.90;;;;;;5034120;28;20848;-69
2022/04/09 09:32:25;;;;;;;9.17;5.07;;;7.80;99.90;;;;;;5052032;28;20267;-69
2022/04/09 09:34:55;;;;;;;6.50;3.80;;;8.10;99.90;;;;;;5052809;28;20456;-68
2022/04/09 09:37:25;;;;;;;5.00;4.10;;;8.30;99.90;;;;;;5034073;28;20445;-69
2022/04/09 09:39:51;;;;;;;9.67;4.97;;;8.50;99.90;;;;;;5052578;28;20412;-69
2022/04/09 09:42:21;;;;;;;5.20;3.50;;;8.90;99.90;;;;;;5052047;28;20419;-69
2022/04/09 09:44:48;;;;;;;4.03;3.47;;;8.90;99.90;;;;;;5052032;28;20885;-69
2022/04/09 09:47:16;;;;;;;6.67;4.23;;;9.10;99.90;;;;;;5053231;28;20781;-69
2022/04/09 09:49:47;;;;;;;10.97;4.47;;;9.30;99.90;;;;;;5061122;28;20434;-68
2022/04/09 09:52:13;;;;;;;7.20;4.20;;;9.00;99.90;;;;;;5072291;28;20406;-68
2022/04/09 09:55:10;;;;;;;9.23;3.47;;;8.80;99.90;;;;;;5072200;28;20917;-68
2022/04/09 09:57:38;;;;;;;6.80;3.63;;;8.70;99.90;;;;;;5072909;28;20573;-69
2022/04/09 10:00:12;;;;;;;5.87;3.97;;;8.90;99.90;;;;;;5074707;28;20426;-67
2022/04/09 10:02:39;;;;;;;6.63;4.33;;;9.30;99.90;;;;;;5072619;28;20857;-68
2022/04/09 10:05:05;;;;;;;6.23;4.40;;;8.70;99.90;;;;;;5072213;28;20976;-69
2022/04/09 10:07:31;;;;;;;8.13;3.37;;;8.90;99.90;;;;;;5072007;28;20464;-69
2022/04/09 10:10:02;;;;;;;5.47;3.40;;;9.00;99.90;;;;;;5072285;28;20877;-68
2022/04/09 10:12:28;;;;;;;9.03;4.60;;;9.20;99.90;;;;;;5066239;28;20184;-68
2022/04/09 10:14:54;;;;;;;6.87;3.50;;;9.00;99.90;;;;;;5051511;28;20477;-69
2022/04/09 10:17:21;;;;;;;10.30;3.50;;;9.20;99.90;;;;;;5051851;28;20982;-69
2022/04/09 10:19:56;;;;;;;6.10;3.30;;;9.30;99.90;;;;;;5051804;28;20904;-69
2022/04/09 10:22:24;;;;;;;7.00;3.50;;;9.50;99.90;;;;;;5052557;28;20499;-68
2022/04/09 10:24:51;;;;;;;5.17;3.50;;;9.60;99.90;;;;;;5052117;28;20409;-69
2022/04/09 10:27:37;;;;;;;5.53;3.30;;;9.10;99.90;;;;;;5051696;28;20558;-69
2022/04/09 10:30:03;;;;;;;5.53;3.00;;;8.70;99.90;;;;;;5051856;28;20469;-69
2022/04/09 10:32:50;;;;;;;4.27;3.30;;;8.90;99.90;;;;;;5051980;28;20406;-69
2022/04/09 10:35:43;;;;;;;4.87;3.23;;;8.90;99.90;;;;;;5052496;28;20721;-69
2022/04/09 10:38:15;;;;;;;7.03;3.70;;;8.90;99.90;;;;;;5051652;28;20507;-69
2022/04/09 10:40:43;;;;;;;4.40;3.20;;;9.00;99.90;;;;;;5054449;28;20885;-68
2022/04/09 10:43:25;;;;;;;5.63;3.47;;;9.10;99.90;;;;;;5051347;28;20426;-69
2022/04/09 10:46:02;;;;;;;6.03;3.33;;;9.50;99.90;;;;;;5056729;28;20382;-69
2022/04/09 10:48:32;;;;;;;5.00;3.60;;;9.60;99.90;;;;;;5055643;28;20789;-69
2022/04/09 10:51:01;;;;;;;5.27;3.10;;;9.60;99.90;;;;;;5055452;28;20439;-67
2022/04/09 10:53:29;;;;;;;4.37;2.30;;;9.40;99.90;;;;;;5055679;28;20470;-68
2022/04/09 10:56:35;;;;;;;3.97;2.50;;;10.50;99.90;;;;;;5056146;28;20404;-68
2022/04/09 10:59:10;;;;;;;7.10;2.90;;;11.00;99.20;;;;;;5055056;28;20384;-67
2022/04/09 11:01:50;;;;;;;7.87;3.27;;;11.30;99.70;;;;;;5055579;28;20378;-66
2022/04/09 11:04:37;;;;;;;4.13;2.73;;;11.80;97.70;;;;;;5055503;28;20413;-68
2022/04/09 11:07:15;;;;;;;7.13;3.13;;;10.70;98.80;;;;;;5055156;28;20425;-69
2022/04/09 11:09:47;;;;;;;6.63;3.23;;;10.90;99.70;;;;;;5055764;28;20456;-67
2022/04/09 11:12:14;;;;;;;5.47;3.10;;;11.80;98.70;;;;;;5054711;28;20774;-68
2022/04/09 11:14:54;;;;;;;5.80;3.10;;;11.20;97.60;;;;;;5055141;28;20749;-70
2022/04/09 11:17:39;;;;;;;5.17;2.73;;;10.20;99.30;;;;;;5055232;28;20437;-70
2022/04/09 11:20:06;;;;;;;4.70;2.53;;;9.20;99.90;;;;;;5055336;28;20413;-68
2022/04/09 11:22:37;;;;;;;4.87;3.30;;;10.20;99.30;;;;;;5054904;28;20405;-69
2022/04/09 11:25:16;;;;;;;4.93;3.03;;;10.70;98.80;;;;;;5054507;28;20413;-70
2022/04/09 11:27:42;;;;;;;4.27;3.00;;;11.50;98.10;;;;;;5054807;28;20448;-69
2022/04/09 11:30:09;;;;;;;6.37;3.37;;;11.00;96.70;;;;;;5054378;28;20405;-69
2022/04/09 11:32:35;;;;;;;3.60;2.90;;;11.00;96.90;;;;;;5054992;28;20242;-70
2022/04/09 11:35:08;;;;;;;3.77;2.87;;;11.90;96.80;;;;;;5054811;28;20413;-69
2022/04/09 11:37:39;;;;;;;6.07;3.40;;;13.40;95.10;;;;;;5054886;28;20425;-70
2022/04/09 11:40:06;;;;;;;4.00;2.93;;;14.80;92.40;;;;;;5036629;28;20501;-71
2022/04/09 11:42:52;;;;;;;5.90;3.47;;;15.50;87.60;;;;;;5053693;28;20509;-70
2022/04/09 11:45:29;;;;;;;5.60;2.60;;;13.50;89.20;;;;;;5054155;28;20819;-71
2022/04/09 11:47:59;;;;;;;5.43;3.30;;;13.60;90.80;;;;;;5054169;28;20454;-70
2022/04/09 11:50:33;;;;;;;4.50;2.70;;;13.80;89.30;;;;;;5054493;28;20389;-69
2022/04/09 11:53:13;;;;;;;3.37;2.53;;;14.80;89.50;;;;;;5054431;28;20409;-69
2022/04/09 11:55:39;;;;;;;3.80;2.10;;;14.80;86.20;;;;;;5053557;28;20390;-69
2022/04/09 11:58:06;;;;;;;4.23;2.33;;;15.00;86.40;;;;;;5053781;28;20959;-69
2022/04/09 12:00:36;;;;;;;4.10;3.40;;;13.70;85.40;;;;;;5054186;28;20407;-70
2022/04/09 12:03:05;;;;;;;3.03;2.50;;;12.60;89.40;;;;;;5054190;28;20869;-69
2022/04/09 12:05:36;;;;;;;4.77;3.30;;;12.80;88.90;;;;;;5054100;28;20406;-70
2022/04/09 12:08:02;;;;;;;10.87;3.80;;;13.10;89.10;;;;;;5053974;28;20445;-70
2022/04/09 12:10:29;;;;;;;5.33;2.93;;;12.40;91.60;;;;;;5054299;28;20539;-69
2022/04/09 12:13:07;;;;;;;3.63;2.70;;;13.00;89.60;;;;;;5053573;28;20413;-69
2022/04/09 12:15:34;;;;;;;5.33;3.00;;;12.30;90.80;;;;;;5054155;28;20403;-71
2022/04/09 12:18:05;;;;;;;7.00;2.97;;;11.30;91.30;;;;;;5053650;28;20461;-69
2022/04/09 12:20:35;;;;;;;5.83;3.00;;;11.60;92.20;;;;;;5054067;28;20382;-70
2022/04/09 12:23:01;;;;;;;5.17;3.47;;;12.90;90.10;;;;;;5036366;28;20470;-68
2022/04/09 12:25:38;;;;;;;5.20;3.30;;;13.20;89.20;;;;;;5053603;28;20420;-70
2022/04/09 12:28:05;;;;;;;6.33;3.10;;;13.60;90.80;;;;;;5053397;28;20962;-70
2022/04/09 12:30:42;;;;;;;4.37;3.80;;;14.40;89.50;;;;;;5053370;28;20909;-70
2022/04/09 12:33:12;;;;;;;6.33;3.00;;;15.90;88.40;;;;;;5053846;28;20403;-69
2022/04/09 12:35:41;;;;;;;3.97;2.70;;;16.10;81.10;;;;;;5061315;28;20465;-70
2022/04/09 12:38:08;;;;;;;6.00;3.10;;;16.50;78.50;;;;;;5073470;28;20433;-69
2022/04/09 12:40:36;;;;;;;3.90;2.63;;;15.90;81.50;;;;;;5070100;28;20861;-70
2022/04/09 12:43:03;;;;;;;3.80;2.63;;;16.20;77.50;;;;;;5055170;28;20473;-70
2022/04/09 12:45:28;;;;;;;4.50;2.70;;;16.00;77.30;;;;;;5053335;28;20404;-70
2022/04/09 12:47:57;;;;;;;3.17;2.67;;;15.20;79.80;;;;;;5054821;28;20464;-68
2022/04/09 12:50:30;;;;;;;6.30;3.03;;;14.70;81.00;;;;;;5053649;28;20588;-68
2022/04/09 12:52:57;;;;;;;4.43;2.53;;;14.10;80.10;;;;;;5036124;28;20389;-69
2022/04/09 12:55:25;;;;;;;5.30;2.70;;;13.80;83.20;;;;;;5053309;28;20856;-69
2022/04/09 12:57:52;;;;;;;5.30;2.80;;;15.00;79.80;;;;;;5053076;28;20774;-69